createdAt,value
2022-10-22T00:01:31.360Z,13.10
2022-10-22T00:04:35.653Z,12.40
2022-10-22T00:07:38.563Z,13.18
2022-10-22T00:10:42.153Z,12.70
2022-10-22T00:16:47.757Z,13.77
2022-10-22T00:19:50.289Z,17.00
2022-10-22T00:22:53.030Z,13.43
2022-10-22T00:25:55.601Z,15.15
2022-10-22T00:28:58.557Z,11.75
2022-10-22T00:32:01.180Z,11.27
2022-10-22T00:35:04.618Z,11.65
2022-10-22T00:38:07.139Z,11.98
2022-10-22T00:41:09.931Z,14.98
2022-10-22T00:44:50.040Z,20.70
2022-10-22T00:48:04.919Z,20.83
2022-10-22T00:51:08.356Z,21.65
2022-10-22T00:54:11.334Z,14.13
2022-10-22T00:57:13.811Z,12.95
2022-10-22T01:00:16.795Z,14.15
2022-10-22T01:03:19.229Z,11.67
2022-10-22T01:06:28.613Z,10.77
2022-10-22T01:09:41.710Z,8.77
2022-10-22T01:13:23.089Z,10.63
2022-10-22T01:16:35.026Z,11.98
2022-10-22T01:19:40.749Z,11.63
2022-10-22T01:22:59.321Z,11.70
2022-10-22T01:29:35.127Z,9.52
2022-10-22T01:32:46.492Z,11.25
2022-10-22T01:35:49.388Z,10.30
2022-10-22T01:38:52.401Z,10.18
2022-10-22T01:41:55.994Z,10.32
2022-10-22T01:44:58.744Z,12.27
2022-10-22T01:48:22.522Z,10.75
2022-10-22T01:52:03.921Z,12.73
2022-10-22T01:55:29.268Z,13.62
2022-10-22T01:58:41.527Z,13.48
2022-10-22T02:01:58.757Z,12.98
2022-10-22T02:05:09.974Z,12.05
2022-10-22T02:08:35.014Z,10.30
2022-10-22T02:11:38.164Z,12.82
2022-10-22T02:14:43.538Z,9.15
2022-10-22T02:17:47.523Z,9.88
2022-10-22T02:20:50.361Z,14.70
2022-10-22T02:23:53.208Z,16.80
2022-10-22T02:27:05.097Z,15.63
2022-10-22T02:33:28.983Z,12.60
2022-10-22T02:36:32.258Z,13.27
2022-10-22T02:39:35.921Z,12.00
2022-10-22T02:42:39.562Z,10.18
2022-10-22T02:45:42.186Z,11.32
2022-10-22T02:48:44.860Z,9.90
2022-10-22T02:51:47.340Z,9.15
2022-10-22T02:54:50.389Z,11.70
2022-10-22T02:57:52.972Z,11.38
2022-10-22T03:00:55.715Z,9.43
2022-10-22T03:03:58.159Z,10.63
2022-10-22T03:07:00.847Z,11.38
2022-10-22T03:10:04.046Z,9.47
2022-10-22T03:13:06.826Z,10.70
2022-10-22T03:16:09.356Z,11.77
2022-10-22T03:19:12.356Z,11.82
2022-10-22T03:22:25.000Z,11.52
2022-10-22T03:25:28.554Z,11.40
2022-10-22T03:28:31.615Z,11.32
2022-10-22T03:31:34.355Z,12.68
2022-10-22T03:34:36.957Z,10.23
2022-10-22T03:37:40.195Z,9.07
2022-10-22T03:40:43.886Z,11.37
2022-10-22T03:43:50.121Z,12.68
2022-10-22T03:46:52.576Z,12.05
2022-10-22T03:49:55.324Z,13.50
2022-10-22T03:52:58.277Z,12.52
2022-10-22T03:56:01.050Z,11.67
2022-10-22T03:59:03.646Z,11.12
2022-10-22T04:02:06.477Z,11.43
2022-10-22T04:05:09.372Z,10.65
2022-10-22T04:08:15.566Z,10.07
2022-10-22T04:11:18.378Z,11.10
2022-10-22T04:14:20.894Z,11.85
2022-10-22T04:17:23.653Z,14.00
2022-10-22T04:20:26.336Z,9.63
2022-10-22T04:23:30.695Z,11.82
2022-10-22T04:26:33.198Z,11.07
2022-10-22T04:29:35.956Z,11.27
2022-10-22T04:32:38.393Z,9.13
2022-10-22T04:35:41.145Z,10.23
2022-10-22T04:38:45.138Z,11.25
2022-10-22T04:41:47.865Z,11.57
2022-10-22T04:44:50.321Z,10.27
2022-10-22T04:47:53.056Z,10.07
2022-10-22T04:50:57.779Z,11.15
2022-10-22T04:54:00.593Z,11.82
2022-10-22T04:57:03.217Z,8.80
2022-10-22T05:00:06.655Z,11.15
2022-10-22T05:03:09.082Z,9.93
2022-10-22T05:09:21.137Z,11.27
2022-10-22T05:12:24.092Z,9.60
2022-10-22T05:15:26.554Z,9.73
2022-10-22T05:18:29.317Z,11.80
2022-10-22T05:21:31.859Z,15.82
2022-10-22T05:24:37.177Z,15.10
2022-10-22T05:27:39.948Z,11.47
2022-10-22T05:30:42.959Z,10.70
2022-10-22T05:33:45.762Z,12.75
2022-10-22T05:36:48.535Z,10.77
2022-10-22T05:40:01.677Z,14.07
2022-10-22T05:43:13.756Z,10.80
2022-10-22T05:46:22.725Z,16.08
2022-10-22T05:49:25.836Z,13.10
2022-10-22T05:52:28.303Z,11.93
2022-10-22T05:55:31.168Z,12.35
2022-10-22T05:58:34.681Z,10.20
2022-10-22T06:01:40.110Z,11.80
2022-10-22T06:04:42.840Z,12.32
2022-10-22T06:07:45.396Z,11.70
2022-10-22T06:10:48.123Z,10.60
2022-10-22T06:13:51.056Z,12.53
2022-10-22T06:16:54.334Z,12.23
2022-10-22T06:19:56.850Z,12.18
2022-10-22T06:22:59.614Z,12.02
2022-10-22T06:26:02.281Z,11.12
2022-10-22T06:29:05.400Z,10.73
2022-10-22T06:32:07.836Z,10.68
2022-10-22T06:35:10.610Z,12.07
2022-10-22T06:38:13.043Z,11.40
2022-10-22T06:41:16.501Z,10.13
2022-10-22T06:44:19.844Z,9.57
2022-10-22T06:47:22.572Z,12.02
2022-10-22T06:50:25.008Z,12.48
2022-10-22T06:53:27.814Z,11.12
2022-10-22T06:56:30.318Z,9.45
2022-10-22T06:59:33.410Z,9.10
2022-10-22T07:02:36.152Z,9.70
2022-10-22T07:05:38.953Z,9.05
2022-10-22T07:08:42.477Z,9.45
2022-10-22T07:11:46.103Z,7.87
2022-10-22T07:14:49.256Z,8.57
2022-10-22T07:17:51.991Z,9.45
2022-10-22T07:20:54.424Z,14.43
2022-10-22T07:23:57.731Z,11.35
2022-10-22T07:27:00.261Z,9.45
2022-10-22T07:30:04.139Z,8.77
2022-10-22T07:33:06.678Z,9.13
2022-10-22T07:36:12.104Z,6.25
2022-10-22T07:39:14.808Z,10.43
2022-10-22T07:42:17.573Z,14.40
2022-10-22T07:45:20.097Z,9.17
2022-10-22T07:48:23.401Z,9.27
2022-10-22T07:51:25.899Z,12.90
2022-10-22T07:54:28.733Z,9.88
2022-10-22T07:57:31.966Z,11.68
2022-10-22T08:00:34.797Z,10.13
2022-10-22T08:03:37.687Z,12.13
2022-10-22T08:06:43.395Z,11.73
2022-10-22T08:09:48.459Z,10.55
2022-10-22T08:12:50.893Z,12.07
2022-10-22T08:15:57.253Z,16.60
2022-10-22T08:19:00.269Z,9.90
2022-10-22T08:22:03.043Z,11.27
2022-10-22T08:25:06.087Z,11.52
2022-10-22T08:28:08.796Z,18.15
2022-10-22T08:31:11.678Z,10.47
2022-10-22T08:34:14.403Z,10.35
2022-10-22T08:37:17.821Z,12.40
2022-10-22T08:40:26.470Z,10.82
2022-10-22T08:43:34.853Z,10.38
2022-10-22T08:47:00.012Z,6.87
2022-10-22T08:50:03.221Z,12.80
2022-10-22T08:53:11.448Z,10.40
2022-10-22T08:56:15.063Z,12.80
2022-10-22T08:59:24.022Z,10.93
2022-10-22T09:02:35.440Z,9.10
2022-10-22T09:06:03.430Z,12.40
2022-10-22T09:09:13.261Z,8.52
2022-10-22T09:12:20.210Z,9.63
2022-10-22T09:15:23.105Z,11.18
2022-10-22T09:18:50.932Z,8.97
2022-10-22T09:21:56.819Z,8.90
2022-10-22T09:25:10.119Z,11.32
2022-10-22T09:28:12.622Z,12.88
2022-10-22T09:31:15.521Z,8.05
2022-10-22T09:34:21.643Z,9.70
2022-10-22T09:37:29.239Z,12.02
2022-10-22T09:40:31.692Z,11.12
2022-10-22T09:43:36.181Z,8.48
2022-10-22T09:46:45.491Z,11.77
2022-10-22T09:49:48.211Z,6.33
2022-10-22T09:53:26.028Z,12.15
2022-10-22T09:56:40.977Z,13.88
2022-10-22T09:59:44.862Z,12.82
2022-10-22T10:02:47.623Z,12.95
2022-10-22T10:05:54.417Z,13.07
2022-10-22T10:08:57.436Z,16.67
2022-10-22T10:12:09.686Z,12.32
2022-10-22T10:15:15.096Z,13.38
2022-10-22T10:18:51.472Z,17.73
2022-10-22T10:22:15.891Z,12.57
2022-10-22T10:25:37.897Z,9.52
2022-10-22T10:28:55.866Z,13.18
2022-10-22T10:32:22.405Z,14.80
2022-10-22T10:35:28.236Z,13.30
2022-10-22T10:38:58.358Z,12.47
2022-10-22T10:42:15.966Z,14.87
2022-10-22T10:45:43.566Z,15.15
2022-10-22T10:48:56.958Z,12.07
2022-10-22T10:52:18.814Z,13.15
2022-10-22T10:55:37.411Z,15.77
2022-10-22T10:59:25.685Z,14.55
2022-10-22T11:02:28.059Z,10.60
2022-10-22T11:06:00.480Z,12.77
2022-10-22T11:09:11.688Z,15.23
2022-10-22T11:12:23.613Z,14.73
2022-10-22T11:15:37.227Z,14.95
2022-10-22T11:18:48.455Z,13.35
2022-10-22T11:22:07.428Z,14.52
2022-10-22T11:25:12.762Z,16.40
2022-10-22T11:28:21.480Z,15.03
2022-10-22T11:31:25.843Z,19.65
2022-10-22T11:35:01.813Z,17.52
2022-10-22T11:38:07.022Z,15.50
2022-10-22T11:41:14.630Z,14.02
2022-10-22T11:44:23.616Z,16.33
2022-10-22T11:47:42.854Z,13.62
2022-10-22T11:50:55.124Z,13.45
2022-10-22T11:53:58.542Z,14.48
2022-10-22T11:57:16.333Z,14.35
2022-10-22T12:00:40.256Z,15.17
2022-10-22T12:03:46.506Z,13.82
2022-10-22T12:07:02.020Z,15.40
2022-10-22T12:10:06.371Z,15.25
2022-10-22T12:13:14.458Z,14.65
2022-10-22T12:16:27.221Z,17.80
2022-10-22T12:19:43.656Z,17.48
2022-10-22T12:22:46.389Z,20.02
2022-10-22T12:25:48.844Z,20.58
2022-10-22T12:28:51.742Z,25.35
2022-10-22T12:31:55.071Z,25.30
2022-10-22T12:34:57.812Z,24.30
2022-10-22T12:38:13.938Z,19.12
2022-10-22T12:41:16.680Z,23.52
2022-10-22T12:44:19.281Z,17.83
2022-10-22T12:47:22.203Z,20.90
2022-10-22T12:50:38.299Z,19.15
2022-10-22T12:53:47.639Z,49.97
2022-10-22T12:56:50.512Z,30.60
2022-10-22T12:59:53.337Z,31.75
2022-10-22T13:02:57.661Z,36.67
2022-10-22T13:06:18.766Z,32.25
2022-10-22T13:09:25.412Z,24.55
2022-10-22T13:12:37.273Z,25.67
2022-10-22T13:15:40.071Z,21.48
2022-10-22T13:18:43.983Z,23.17
2022-10-22T13:21:48.880Z,37.17
2022-10-22T13:24:51.821Z,35.58
2022-10-22T13:27:55.372Z,29.27
2022-10-22T13:31:08.510Z,22.62
2022-10-22T13:34:17.239Z,19.93
2022-10-22T13:37:20.061Z,22.52
2022-10-22T13:40:22.574Z,20.42
2022-10-22T13:43:25.514Z,22.45
2022-10-22T13:46:29.197Z,21.25
2022-10-22T13:49:31.984Z,22.50
2022-10-22T13:52:38.736Z,22.00
2022-10-22T13:55:41.646Z,19.70
2022-10-22T13:58:45.698Z,25.98
2022-10-22T14:01:48.471Z,27.23
2022-10-22T14:04:51.694Z,29.33
2022-10-22T14:07:54.178Z,30.95
2022-10-22T14:10:57.022Z,36.65
2022-10-22T14:13:59.520Z,34.25
2022-10-22T14:17:02.478Z,36.72
2022-10-22T14:20:05.218Z,28.07
2022-10-22T14:23:20.499Z,29.20
2022-10-22T14:26:31.291Z,26.77
2022-10-22T14:29:33.984Z,24.40
2022-10-22T14:32:36.835Z,20.80
2022-10-22T14:35:39.588Z,27.43
2022-10-22T14:38:43.081Z,23.33
2022-10-22T14:41:45.845Z,23.75
2022-10-22T14:44:48.313Z,25.23
2022-10-22T14:47:51.841Z,21.02
2022-10-22T14:50:54.804Z,24.20
2022-10-22T14:53:57.577Z,21.48
2022-10-22T14:57:00.056Z,24.45
2022-10-22T15:00:04.103Z,28.67
2022-10-22T15:03:06.880Z,33.58
2022-10-22T15:06:11.312Z,35.53
2022-10-22T15:09:14.554Z,40.40
2022-10-22T15:12:17.318Z,33.20
2022-10-22T15:15:22.641Z,26.95
2022-10-22T15:18:26.368Z,27.48
2022-10-22T15:21:28.895Z,31.63
2022-10-22T15:24:32.311Z,26.52
2022-10-22T15:27:35.429Z,28.33
2022-10-22T15:30:38.450Z,28.23
2022-10-22T15:33:42.430Z,32.83
2022-10-22T15:36:45.215Z,38.93
2022-10-22T15:39:47.946Z,34.92
2022-10-22T15:42:50.778Z,39.83
2022-10-22T15:46:15.337Z,38.53
2022-10-22T15:49:18.402Z,38.90
2022-10-22T15:52:23.783Z,49.40
2022-10-22T15:55:26.736Z,49.33
2022-10-22T15:58:29.214Z,46.67
2022-10-22T16:01:34.134Z,44.38
2022-10-22T16:04:38.045Z,34.88
2022-10-22T16:07:40.819Z,31.50
2022-10-22T16:10:48.545Z,24.67
2022-10-22T16:13:56.520Z,39.63
2022-10-22T16:16:59.755Z,62.00
2022-10-22T16:20:02.976Z,53.30
2022-10-22T16:23:06.048Z,40.57
2022-10-22T16:26:08.703Z,35.40
2022-10-22T16:29:12.645Z,30.80
2022-10-22T16:32:16.503Z,29.52
2022-10-22T16:35:19.238Z,29.58
2022-10-22T16:38:21.705Z,27.33
2022-10-22T16:41:25.914Z,27.50
2022-10-22T16:44:29.322Z,31.98
2022-10-22T16:47:32.036Z,26.62
2022-10-22T16:50:34.643Z,26.83
2022-10-22T16:53:37.698Z,27.17
2022-10-22T16:56:40.227Z,28.05
2022-10-22T16:59:43.220Z,48.05
2022-10-22T17:02:45.786Z,72.28
2022-10-22T17:05:49.199Z,75.07
2022-10-22T17:08:52.114Z,54.60
2022-10-22T17:11:55.186Z,54.95
2022-10-22T17:14:57.635Z,41.15
2022-10-22T17:18:00.854Z,32.20
2022-10-22T17:21:07.942Z,26.85
2022-10-22T17:24:11.023Z,31.47
2022-10-22T17:27:14.159Z,30.55
2022-10-22T17:30:22.018Z,34.22
2022-10-22T17:33:27.648Z,42.58
2022-10-22T17:36:34.819Z,34.47
2022-10-22T17:39:38.659Z,33.93
2022-10-22T17:42:43.006Z,35.30
2022-10-22T17:45:46.006Z,35.78
2022-10-22T17:48:54.267Z,35.13
2022-10-22T17:51:57.097Z,33.50
2022-10-22T17:55:00.013Z,31.93
2022-10-22T17:58:02.751Z,29.42
2022-10-22T18:01:05.944Z,33.55
2022-10-22T18:04:10.941Z,41.53
2022-10-22T18:07:13.578Z,33.70
2022-10-22T18:10:16.448Z,28.83
2022-10-22T18:13:19.179Z,31.23
2022-10-22T18:16:22.662Z,29.48
2022-10-22T18:19:25.303Z,35.17
2022-10-22T18:22:28.486Z,36.80
2022-10-22T18:25:31.831Z,33.83
2022-10-22T18:28:34.947Z,36.00
2022-10-22T18:31:37.663Z,38.20
2022-10-22T18:34:40.550Z,38.28
2022-10-22T18:37:43.466Z,37.45
2022-10-22T18:40:46.892Z,40.43
2022-10-22T18:43:51.282Z,42.08
2022-10-22T18:46:54.221Z,42.22
2022-10-22T18:49:57.022Z,38.55
2022-10-22T18:53:00.385Z,41.85
2022-10-22T18:56:07.724Z,41.33
2022-10-22T18:59:17.436Z,42.60
2022-10-22T19:02:20.249Z,45.92
2022-10-22T19:05:23.334Z,33.55
2022-10-22T19:08:26.076Z,34.40
2022-10-22T19:11:29.045Z,30.43
2022-10-22T19:14:32.319Z,30.58
2022-10-22T19:17:35.181Z,30.33
2022-10-22T19:20:37.945Z,30.23
2022-10-22T19:23:41.228Z,29.75
2022-10-22T19:26:44.446Z,28.83
2022-10-22T19:29:49.490Z,30.60
2022-10-22T19:32:52.098Z,30.15
2022-10-22T19:35:54.946Z,28.02
2022-10-22T19:38:58.247Z,30.50
2022-10-22T19:42:01.705Z,32.90
2022-10-22T19:45:05.417Z,32.28
2022-10-22T19:48:08.234Z,31.25
2022-10-22T19:51:15.413Z,41.88
2022-10-22T19:54:21.205Z,37.00
2022-10-22T19:57:23.837Z,47.70
2022-10-22T20:00:28.414Z,50.33
2022-10-22T20:03:31.466Z,53.90
2022-10-22T20:06:33.983Z,48.38
2022-10-22T20:09:36.945Z,37.33
2022-10-22T20:12:39.654Z,36.10
2022-10-22T20:15:42.497Z,34.78
2022-10-22T20:18:45.306Z,34.75
2022-10-22T20:21:50.913Z,32.15
2022-10-22T20:24:54.484Z,31.67
2022-10-22T20:27:58.434Z,36.23
2022-10-22T20:31:01.027Z,33.38
2022-10-22T20:34:04.235Z,34.05
2022-10-22T20:37:06.689Z,38.70
2022-10-22T20:40:11.135Z,34.08
2022-10-22T20:43:13.647Z,38.33
2022-10-22T20:46:24.494Z,34.63
2022-10-22T20:49:26.970Z,33.65
2022-10-22T20:52:29.962Z,36.08
2022-10-22T20:55:32.657Z,34.70
2022-10-22T20:58:35.855Z,35.07
2022-10-22T21:01:40.273Z,32.45
2022-10-22T21:04:45.582Z,33.67
2022-10-22T21:07:48.915Z,36.40
2022-10-22T21:10:51.686Z,33.47
2022-10-22T21:13:54.196Z,34.67
2022-10-22T21:16:57.080Z,33.08
2022-10-22T21:19:59.610Z,31.73
2022-10-22T21:23:02.348Z,33.42
2022-10-22T21:26:05.580Z,32.90
2022-10-22T21:29:09.037Z,32.30
2022-10-22T21:32:11.485Z,27.62
2022-10-22T21:35:14.274Z,27.05
2022-10-22T21:38:16.781Z,26.98
2022-10-22T21:41:21.611Z,24.83
2022-10-22T21:44:24.036Z,24.60
2022-10-22T21:47:26.771Z,30.25
2022-10-22T21:50:30.049Z,41.33
2022-10-22T21:53:32.756Z,32.78
2022-10-22T21:56:36.171Z,35.53
2022-10-22T21:59:38.932Z,36.10
2022-10-22T22:02:41.526Z,42.28
2022-10-22T22:05:44.422Z,39.33
2022-10-22T22:08:47.189Z,47.58
2022-10-22T22:11:49.982Z,48.97
2022-10-22T22:14:52.465Z,25.77
2022-10-22T22:17:55.226Z,25.52
2022-10-22T22:20:58.607Z,26.50
2022-10-22T22:24:01.519Z,19.00
2022-10-22T22:27:04.175Z,24.58
2022-10-22T22:30:07.685Z,22.87
2022-10-22T22:33:10.483Z,20.60
2022-10-22T22:36:13.291Z,22.77
2022-10-22T22:39:22.578Z,22.85
2022-10-22T22:42:25.306Z,23.98
2022-10-22T22:45:27.779Z,23.97
2022-10-22T22:48:30.756Z,25.05
2022-10-22T22:51:33.272Z,24.40
2022-10-22T22:54:36.004Z,21.90
2022-10-22T22:57:38.521Z,23.00
2022-10-22T23:03:58.761Z,21.50
2022-10-22T23:07:01.506Z,20.80
2022-10-22T23:10:04.135Z,18.83
2022-10-22T23:13:06.873Z,15.85
2022-10-22T23:16:13.447Z,18.00
2022-10-22T23:19:18.655Z,16.98
2022-10-22T23:22:21.156Z,16.45
2022-10-22T23:25:23.942Z,22.00
2022-10-22T23:28:26.665Z,21.98
2022-10-22T23:31:29.852Z,28.87
2022-10-22T23:34:32.723Z,25.00
2022-10-22T23:37:35.512Z,23.58
2022-10-22T23:40:38.375Z,25.35
2022-10-22T23:43:41.173Z,25.75
2022-10-22T23:46:43.856Z,26.70
2022-10-22T23:49:46.824Z,24.35
2022-10-22T23:52:49.314Z,23.65
2022-10-22T23:55:52.090Z,28.15
2022-10-22T23:58:54.845Z,25.85
